createdAt,value
2018-10-16T00:00:13.917Z,0.00
2018-10-16T00:01:13.923Z,0.00
2018-10-16T00:02:13.893Z,0.00
2018-10-16T00:03:14.000Z,0.00
2018-10-16T00:04:13.882Z,0.00
2018-10-16T00:05:13.860Z,0.00
2018-10-16T00:06:13.874Z,0.00
2018-10-16T00:07:13.837Z,0.00
2018-10-16T00:08:13.844Z,0.00
2018-10-16T00:09:13.818Z,0.00
2018-10-16T00:10:13.820Z,0.00
2018-10-16T00:11:13.811Z,0.00
2018-10-16T00:12:13.783Z,0.00
2018-10-16T00:13:13.776Z,0.00
2018-10-16T00:14:13.762Z,0.00
2018-10-16T00:15:13.755Z,0.00
2018-10-16T00:16:13.757Z,0.00
2018-10-16T00:17:13.732Z,0.00
2018-10-16T00:18:13.717Z,0.00
2018-10-16T00:19:13.712Z,0.00
2018-10-16T00:20:13.699Z,0.00
2018-10-16T00:21:13.707Z,0.00
2018-10-16T00:22:13.674Z,0.00
2018-10-16T00:23:13.662Z,0.00
2018-10-16T00:24:13.653Z,0.00
2018-10-16T00:25:13.643Z,0.00
2018-10-16T00:26:13.650Z,0.00
2018-10-16T00:27:13.636Z,0.00
2018-10-16T00:28:13.614Z,0.00
2018-10-16T00:29:13.597Z,0.00
2018-10-16T00:30:13.601Z,0.00
2018-10-16T00:31:13.612Z,0.00
2018-10-16T00:32:13.579Z,0.00
2018-10-16T00:33:13.554Z,0.00
2018-10-16T00:34:13.543Z,0.00
2018-10-16T00:35:13.536Z,0.00
2018-10-16T00:36:13.528Z,0.00
2018-10-16T00:37:13.526Z,0.00
2018-10-16T00:38:13.497Z,0.00
2018-10-16T00:39:13.488Z,0.00
2018-10-16T00:40:13.475Z,0.00
2018-10-16T00:41:13.465Z,0.00
2018-10-16T00:42:13.469Z,0.00
2018-10-16T00:43:13.470Z,0.00
2018-10-16T00:44:13.432Z,0.00
2018-10-16T00:45:13.429Z,0.00
2018-10-16T00:46:13.409Z,0.00
2018-10-16T00:47:13.416Z,0.00
2018-10-16T00:48:13.393Z,0.00
2018-10-16T00:49:13.382Z,0.00
2018-10-16T00:50:13.365Z,0.00
2018-10-16T00:51:13.355Z,0.00
2018-10-16T00:52:13.361Z,0.00
2018-10-16T00:53:13.333Z,0.00
2018-10-16T00:54:13.327Z,0.00
2018-10-16T00:55:13.311Z,0.00
2018-10-16T00:56:13.301Z,0.00
2018-10-16T00:57:13.304Z,0.00
2018-10-16T00:58:13.279Z,0.00
2018-10-16T00:59:13.271Z,0.00
2018-10-16T01:00:13.265Z,0.00
2018-10-16T01:01:13.247Z,0.00
2018-10-16T01:02:13.249Z,0.00
2018-10-16T01:03:13.223Z,0.00
2018-10-16T01:04:13.212Z,0.00
2018-10-16T01:05:13.211Z,0.00
2018-10-16T01:06:13.191Z,0.00
2018-10-16T01:07:13.195Z,0.00
2018-10-16T01:08:13.169Z,0.00
2018-10-16T01:09:13.159Z,0.00
2018-10-16T01:10:13.148Z,0.00
2018-10-16T01:11:13.154Z,0.00
2018-10-16T01:12:13.164Z,0.00
2018-10-16T01:13:13.134Z,0.00
2018-10-16T01:14:13.103Z,0.00
2018-10-16T01:15:13.102Z,0.00
2018-10-16T01:16:13.092Z,0.00
2018-10-16T01:17:13.097Z,0.00
2018-10-16T01:18:13.058Z,0.00
2018-10-16T01:19:13.048Z,0.00
2018-10-16T01:20:13.057Z,0.00
2018-10-16T01:21:13.027Z,0.00
2018-10-16T01:22:13.033Z,0.00
2018-10-16T01:23:13.005Z,0.00
2018-10-16T01:24:12.996Z,0.00
2018-10-16T01:25:12.983Z,0.00
2018-10-16T01:26:12.973Z,0.00
2018-10-16T01:27:12.992Z,0.00
2018-10-16T01:28:12.949Z,0.00
2018-10-16T01:29:12.940Z,0.00
2018-10-16T01:30:12.929Z,0.00
2018-10-16T01:31:12.916Z,0.00
2018-10-16T01:32:12.924Z,0.00
2018-10-16T01:33:12.907Z,0.00
2018-10-16T01:34:12.883Z,0.00
2018-10-16T01:35:12.871Z,0.00
2018-10-16T01:36:12.862Z,0.00
2018-10-16T01:37:12.867Z,0.00
2018-10-16T01:38:12.841Z,0.00
2018-10-16T01:39:12.841Z,0.00
2018-10-16T01:40:12.817Z,0.00
2018-10-16T01:41:12.807Z,0.00
2018-10-16T01:42:12.815Z,0.00
2018-10-16T01:43:12.798Z,0.00
2018-10-16T01:44:12.782Z,0.00
2018-10-16T01:45:12.763Z,0.00
2018-10-16T01:46:12.752Z,0.00
2018-10-16T01:47:12.757Z,0.00
2018-10-16T01:48:12.736Z,0.00
2018-10-16T01:49:12.718Z,0.00
2018-10-16T01:50:12.713Z,0.00
2018-10-16T01:51:12.719Z,0.00
2018-10-16T01:52:12.733Z,0.00
2018-10-16T01:53:12.675Z,0.00
2018-10-16T01:54:12.669Z,0.00
2018-10-16T01:55:12.658Z,0.00
2018-10-16T01:56:12.642Z,0.00
2018-10-16T01:57:12.635Z,0.00
2018-10-16T01:58:12.640Z,0.00
2018-10-16T01:59:12.609Z,0.00
2018-10-16T02:00:12.598Z,0.00
2018-10-16T02:01:12.607Z,0.00
2018-10-16T02:02:12.579Z,0.00
2018-10-16T02:03:12.581Z,0.00
2018-10-16T02:04:12.556Z,0.00
2018-10-16T02:05:12.545Z,0.00
2018-10-16T02:06:12.535Z,0.00
2018-10-16T02:07:12.530Z,0.00
2018-10-16T02:08:12.526Z,0.00
2018-10-16T02:09:12.500Z,0.00
2018-10-16T02:10:12.489Z,0.00
2018-10-16T02:11:12.480Z,0.00
2018-10-16T02:12:12.471Z,0.00
2018-10-16T02:13:12.477Z,0.00
2018-10-16T02:14:12.446Z,0.00
2018-10-16T02:15:12.434Z,0.00
2018-10-16T02:16:12.423Z,0.00
2018-10-16T02:17:12.413Z,0.00
2018-10-16T02:18:12.419Z,0.00
2018-10-16T02:19:12.395Z,0.00
2018-10-16T02:20:12.379Z,0.00
2018-10-16T02:21:12.368Z,0.00
2018-10-16T02:22:12.369Z,0.00
2018-10-16T02:23:12.360Z,0.00
2018-10-16T02:24:12.334Z,0.00
2018-10-16T02:25:12.326Z,0.00
2018-10-16T02:26:12.313Z,0.00
2018-10-16T02:27:12.303Z,0.00
2018-10-16T02:28:12.292Z,0.00
2018-10-16T02:29:12.294Z,0.00
2018-10-16T02:30:12.270Z,0.00
2018-10-16T02:31:12.271Z,0.00
2018-10-16T02:32:12.247Z,0.00
2018-10-16T02:33:12.243Z,0.00
2018-10-16T02:34:12.297Z,0.00
2018-10-16T02:35:12.233Z,0.00
2018-10-16T02:36:12.204Z,0.00
2018-10-16T02:37:12.194Z,0.00
2018-10-16T02:38:12.184Z,0.00
2018-10-16T02:39:12.189Z,0.00
2018-10-16T02:40:12.161Z,0.00
2018-10-16T02:41:12.150Z,0.00
2018-10-16T02:42:12.139Z,0.00
2018-10-16T02:43:12.131Z,0.00
2018-10-16T02:44:12.135Z,0.00
2018-10-16T02:45:12.105Z,0.00
2018-10-16T02:46:12.099Z,0.00
2018-10-16T02:47:12.084Z,0.00
2018-10-16T02:48:12.072Z,0.00
2018-10-16T02:49:12.090Z,0.00
2018-10-16T02:50:12.062Z,0.00
2018-10-16T02:51:12.039Z,0.00
2018-10-16T02:52:12.031Z,0.00
2018-10-16T02:53:12.017Z,0.00
2018-10-16T02:54:12.022Z,0.00
2018-10-16T02:55:11.997Z,0.00
2018-10-16T02:56:11.995Z,0.00
2018-10-16T02:57:11.991Z,0.00
2018-10-16T02:58:11.962Z,0.00
2018-10-16T02:59:11.966Z,0.00
2018-10-16T03:00:11.941Z,0.00
2018-10-16T03:01:11.936Z,0.00
2018-10-16T03:02:11.933Z,0.00
2018-10-16T03:03:11.909Z,0.00
2018-10-16T03:04:11.931Z,0.00
2018-10-16T03:05:11.884Z,0.00
2018-10-16T03:06:11.875Z,0.00
2018-10-16T03:07:11.863Z,0.00
2018-10-16T03:08:11.871Z,0.00
2018-10-16T03:09:11.841Z,0.00
2018-10-16T03:10:11.845Z,0.00
2018-10-16T03:11:11.821Z,0.00
2018-10-16T03:12:11.817Z,0.00
2018-10-16T03:13:11.801Z,0.00
2018-10-16T03:14:11.794Z,0.00
2018-10-16T03:15:11.792Z,0.00
2018-10-16T03:16:11.771Z,0.00
2018-10-16T03:17:11.752Z,0.00
2018-10-16T03:18:11.745Z,0.00
2018-10-16T03:19:11.737Z,0.00
2018-10-16T03:20:11.756Z,0.00
2018-10-16T03:21:11.711Z,0.00
2018-10-16T03:22:11.698Z,0.00
2018-10-16T03:23:11.689Z,0.00
2018-10-16T03:24:11.686Z,0.00
2018-10-16T03:25:11.683Z,0.00
2018-10-16T03:26:11.655Z,0.00
2018-10-16T03:27:11.651Z,0.00
2018-10-16T03:28:11.632Z,0.00
2018-10-16T03:29:11.627Z,0.00
2018-10-16T03:30:11.627Z,0.00
2018-10-16T03:31:11.600Z,0.00
2018-10-16T03:32:11.599Z,0.00
2018-10-16T03:33:11.577Z,0.00
2018-10-16T03:34:11.566Z,0.00
2018-10-16T03:35:11.570Z,0.00
2018-10-16T03:36:11.555Z,0.00
2018-10-16T03:37:11.535Z,0.00
2018-10-16T03:38:11.523Z,0.00
2018-10-16T03:39:11.513Z,0.00
2018-10-16T03:40:11.516Z,0.00
2018-10-16T03:41:11.498Z,0.00
2018-10-16T03:42:11.479Z,0.00
2018-10-16T03:43:11.466Z,0.00
2018-10-16T03:44:11.457Z,0.00
2018-10-16T03:45:11.461Z,0.00
2018-10-16T03:46:11.435Z,0.00
2018-10-16T03:47:11.428Z,0.00
2018-10-16T03:48:11.413Z,0.00
2018-10-16T03:49:11.407Z,0.00
2018-10-16T03:50:11.410Z,0.00
2018-10-16T03:51:11.379Z,0.00
2018-10-16T03:52:11.369Z,0.00
2018-10-16T03:53:11.383Z,0.00
2018-10-16T03:54:11.347Z,0.00
2018-10-16T03:55:11.351Z,0.00
2018-10-16T03:56:11.325Z,0.00
2018-10-16T03:57:11.329Z,0.00
2018-10-16T03:58:11.304Z,0.00
2018-10-16T03:59:11.291Z,0.00
2018-10-16T04:00:11.298Z,0.00
2018-10-16T04:01:11.271Z,0.00
2018-10-16T04:02:11.263Z,0.00
2018-10-16T04:03:11.247Z,0.00
2018-10-16T04:04:11.254Z,0.00
2018-10-16T04:05:11.260Z,0.00
2018-10-16T04:06:11.216Z,0.00
2018-10-16T04:07:11.208Z,0.00
2018-10-16T04:08:11.217Z,0.00
2018-10-16T04:09:11.187Z,0.00
2018-10-16T04:10:11.186Z,0.00
2018-10-16T04:11:11.176Z,0.00
2018-10-16T04:12:11.166Z,0.00
2018-10-16T04:13:11.137Z,0.00
2018-10-16T04:14:11.127Z,0.00
2018-10-16T04:15:11.124Z,0.00
2018-10-16T04:16:11.148Z,0.00
2018-10-16T04:17:11.097Z,0.00
2018-10-16T04:18:11.083Z,0.00
2018-10-16T04:19:11.071Z,0.00
2018-10-16T04:20:11.070Z,0.00
2018-10-16T04:21:11.071Z,0.00
2018-10-16T04:22:11.045Z,0.00
2018-10-16T04:23:11.034Z,0.00
2018-10-16T04:24:11.018Z,0.00
2018-10-16T04:25:11.010Z,0.00
2018-10-16T04:26:11.012Z,0.00
2018-10-16T04:27:10.988Z,0.00
2018-10-16T04:28:10.973Z,0.00
2018-10-16T04:29:10.994Z,0.00
2018-10-16T04:30:10.953Z,0.00
2018-10-16T04:31:10.960Z,0.00
2018-10-16T04:32:10.936Z,0.00
2018-10-16T04:33:10.918Z,0.00
2018-10-16T04:34:10.907Z,0.00
2018-10-16T04:35:10.898Z,0.00
2018-10-16T04:36:10.904Z,0.00
2018-10-16T04:37:10.878Z,0.00
2018-10-16T04:38:10.884Z,0.00
2018-10-16T04:39:10.855Z,0.00
2018-10-16T04:40:10.844Z,0.00
2018-10-16T04:41:10.860Z,0.00
2018-10-16T04:42:10.820Z,0.00
2018-10-16T04:43:10.840Z,0.00
2018-10-16T04:44:10.798Z,0.00
2018-10-16T04:45:10.787Z,0.00
2018-10-16T04:46:10.797Z,0.00
2018-10-16T04:47:10.771Z,0.00
2018-10-16T04:48:10.766Z,0.00
2018-10-16T04:49:10.763Z,0.00
2018-10-16T04:50:10.733Z,0.00
2018-10-16T04:51:10.754Z,0.00
2018-10-16T04:52:10.710Z,0.00
2018-10-16T04:53:10.707Z,0.00
2018-10-16T04:54:10.699Z,0.00
2018-10-16T04:55:10.782Z,0.00
2018-10-16T04:56:10.683Z,0.00
2018-10-16T04:57:10.653Z,0.00
2018-10-16T04:58:10.647Z,0.00
2018-10-16T04:59:10.632Z,0.00
2018-10-16T05:00:10.638Z,0.00
2018-10-16T05:01:10.626Z,0.00
2018-10-16T05:02:10.606Z,0.00
2018-10-16T05:03:10.593Z,0.00
2018-10-16T05:04:10.660Z,0.00
2018-10-16T05:05:10.568Z,0.00
2018-10-16T05:06:10.587Z,0.00
2018-10-16T05:07:10.544Z,0.00
2018-10-16T05:08:10.533Z,0.00
2018-10-16T05:09:10.521Z,0.00
2018-10-16T05:10:10.512Z,0.00
2018-10-16T05:11:10.533Z,0.00
2018-10-16T05:12:10.512Z,0.00
2018-10-16T05:13:10.553Z,0.00
2018-10-16T05:14:10.466Z,0.00
2018-10-16T05:15:10.467Z,0.00
2018-10-16T05:16:10.443Z,0.00
2018-10-16T05:17:10.463Z,0.00
2018-10-16T05:18:10.420Z,0.00
2018-10-16T05:19:10.495Z,0.00
2018-10-16T05:20:10.414Z,0.00
2018-10-16T05:21:10.388Z,4.00
2018-10-16T05:22:10.423Z,4.00
2018-10-16T05:23:10.371Z,4.00
2018-10-16T05:24:10.370Z,4.00
2018-10-16T05:25:10.347Z,8.00
2018-10-16T05:26:10.351Z,4.00
2018-10-16T05:27:10.352Z,8.00
2018-10-16T05:28:10.329Z,8.00
2018-10-16T05:29:10.300Z,8.00
2018-10-16T05:30:10.288Z,12.00
2018-10-16T05:31:10.410Z,16.00
2018-10-16T05:32:10.299Z,16.00
2018-10-16T05:33:10.276Z,20.00
2018-10-16T05:34:10.244Z,20.00
2018-10-16T05:35:10.233Z,24.00
2018-10-16T05:36:10.222Z,24.00
2018-10-16T05:37:10.231Z,28.00
2018-10-16T05:38:10.204Z,32.00
2018-10-16T05:39:10.255Z,36.00
2018-10-16T05:40:10.178Z,40.00
2018-10-16T05:41:10.165Z,44.00
2018-10-16T05:42:10.171Z,48.00
2018-10-16T05:43:10.142Z,52.00
2018-10-16T05:44:10.140Z,60.00
2018-10-16T05:45:10.120Z,60.00
2018-10-16T05:46:10.127Z,64.00
2018-10-16T05:47:10.111Z,72.00
2018-10-16T05:48:10.108Z,72.00
2018-10-16T05:49:10.083Z,80.00
2018-10-16T05:50:10.062Z,84.00
2018-10-16T05:51:10.052Z,88.00
2018-10-16T05:52:10.056Z,96.00
2018-10-16T05:53:10.030Z,100.00
2018-10-16T05:54:10.030Z,104.00
2018-10-16T05:55:10.032Z,112.00
2018-10-16T05:56:09.997Z,112.00
2018-10-16T05:57:10.033Z,120.00
2018-10-16T05:58:09.983Z,124.00
2018-10-16T05:59:09.966Z,132.00
2018-10-16T06:00:09.956Z,132.00
2018-10-16T06:01:09.944Z,136.00
2018-10-16T06:02:09.947Z,148.00
2018-10-16T06:03:09.920Z,148.00
2018-10-16T06:04:09.908Z,152.00
2018-10-16T06:05:09.895Z,156.00
2018-10-16T06:06:09.884Z,164.00
2018-10-16T06:07:09.906Z,164.00
2018-10-16T06:08:09.861Z,172.00
2018-10-16T06:09:09.849Z,176.00
2018-10-16T06:10:09.849Z,180.00
2018-10-16T06:11:09.834Z,184.00
2018-10-16T06:12:09.852Z,192.00
2018-10-16T06:13:09.807Z,196.00
2018-10-16T06:14:09.814Z,200.00
2018-10-16T06:15:09.783Z,204.00
2018-10-16T06:16:09.898Z,208.00
2018-10-16T06:17:09.774Z,212.00
2018-10-16T06:18:09.750Z,220.00
2018-10-16T06:19:09.742Z,224.00
2018-10-16T06:20:09.726Z,232.00
2018-10-16T06:21:09.742Z,232.00
2018-10-16T06:22:09.734Z,236.00
2018-10-16T06:23:09.692Z,240.00
2018-10-16T06:24:09.680Z,248.00
2018-10-16T06:25:09.669Z,256.00
2018-10-16T06:26:09.658Z,260.00
2018-10-16T06:27:09.648Z,264.00
2018-10-16T06:28:09.654Z,268.00
2018-10-16T06:29:09.628Z,272.00
2018-10-16T06:30:09.624Z,276.00
2018-10-16T06:31:09.602Z,284.00
2018-10-16T06:32:09.603Z,284.00
2018-10-16T06:33:09.596Z,288.00
2018-10-16T06:34:09.590Z,292.00
2018-10-16T06:35:09.557Z,296.00
2018-10-16T06:36:09.552Z,300.00
2018-10-16T06:37:09.547Z,304.00
2018-10-16T06:38:09.538Z,308.00
2018-10-16T06:39:09.522Z,316.00
2018-10-16T06:40:09.500Z,320.00
2018-10-16T06:41:09.608Z,324.00
2018-10-16T06:42:09.477Z,324.00
2018-10-16T06:43:09.482Z,328.00
2018-10-16T06:44:09.460Z,332.00
2018-10-16T06:45:09.444Z,336.00
2018-10-16T06:46:09.433Z,340.00
2018-10-16T06:47:09.434Z,344.00
2018-10-16T06:48:09.696Z,344.00
2018-10-16T06:49:09.408Z,348.00
2018-10-16T06:50:09.397Z,348.00
2018-10-16T06:51:09.376Z,356.00
2018-10-16T06:52:09.368Z,360.00
2018-10-16T06:53:09.404Z,360.00
2018-10-16T06:54:09.363Z,364.00
2018-10-16T06:55:09.364Z,368.00
2018-10-16T06:56:09.321Z,368.00
2018-10-16T06:57:09.310Z,372.00
2018-10-16T06:58:09.329Z,372.00
2018-10-16T06:59:09.290Z,376.00
2018-10-16T07:00:09.311Z,380.00
2018-10-16T07:01:09.283Z,384.00
2018-10-16T07:02:09.252Z,388.00
2018-10-16T07:03:09.255Z,388.00
2018-10-16T07:04:09.233Z,392.00
2018-10-16T07:05:09.225Z,392.00
2018-10-16T07:06:09.210Z,396.00
2018-10-16T07:07:09.354Z,396.00
2018-10-16T07:08:09.199Z,396.00
2018-10-16T07:09:09.194Z,400.00
2018-10-16T07:10:09.177Z,404.00
2018-10-16T07:11:09.149Z,408.00
2018-10-16T07:12:09.163Z,408.00
2018-10-16T07:13:09.159Z,412.00
2018-10-16T07:14:09.131Z,412.00
2018-10-16T07:15:09.309Z,412.00
2018-10-16T07:16:09.139Z,420.00
2018-10-16T07:17:09.091Z,420.00
2018-10-16T07:18:09.093Z,420.00
2018-10-16T07:19:09.067Z,424.00
2018-10-16T07:20:09.068Z,428.00
2018-10-16T07:21:09.073Z,428.00
2018-10-16T07:22:09.058Z,432.00
2018-10-16T07:23:09.087Z,432.00
2018-10-16T07:24:09.012Z,432.00
2018-10-16T07:25:09.007Z,436.00
2018-10-16T07:26:08.987Z,440.00
2018-10-16T07:27:09.005Z,440.00
2018-10-16T07:28:09.011Z,444.00
2018-10-16T07:29:08.960Z,444.00
2018-10-16T07:30:09.035Z,448.00
2018-10-16T07:31:08.931Z,448.00
2018-10-16T07:32:08.922Z,448.00
2018-10-16T07:33:08.971Z,452.00
2018-10-16T07:34:08.910Z,456.00
2018-10-16T07:35:08.908Z,456.00
2018-10-16T07:36:08.870Z,460.00
2018-10-16T07:37:08.858Z,460.00
2018-10-16T07:38:09.039Z,464.00
2018-10-16T07:39:08.852Z,468.00
2018-10-16T07:40:08.857Z,468.00
2018-10-16T07:41:08.813Z,472.00
2018-10-16T07:42:08.813Z,472.00
2018-10-16T07:43:08.796Z,476.00
2018-10-16T07:44:08.828Z,476.00
2018-10-16T07:45:08.794Z,476.00
2018-10-16T07:46:08.757Z,480.00
2018-10-16T07:47:08.822Z,484.00
2018-10-16T07:48:08.763Z,484.00
2018-10-16T07:49:08.741Z,488.00
2018-10-16T07:50:08.737Z,488.00
2018-10-16T07:51:08.751Z,488.00
2018-10-16T07:52:08.698Z,492.00
2018-10-16T07:53:08.681Z,492.00
2018-10-16T07:54:08.702Z,496.00
2018-10-16T07:55:08.659Z,496.00
2018-10-16T07:56:08.676Z,504.00
2018-10-16T07:57:08.740Z,504.00
2018-10-16T07:58:08.624Z,504.00
2018-10-16T07:59:08.640Z,508.00
2018-10-16T08:00:08.617Z,508.00
2018-10-16T08:01:08.594Z,512.00
2018-10-16T08:02:08.596Z,512.00
2018-10-16T08:03:08.568Z,516.00
2018-10-16T08:04:08.588Z,516.00
2018-10-16T08:05:08.557Z,520.00
2018-10-16T08:06:08.537Z,524.00
2018-10-16T08:07:08.551Z,524.00
2018-10-16T08:08:08.516Z,528.00
2018-10-16T08:09:08.528Z,528.00
2018-10-16T08:10:08.491Z,528.00
2018-10-16T08:11:08.490Z,532.00
2018-10-16T08:12:08.470Z,536.00
2018-10-16T08:13:08.490Z,540.00
2018-10-16T08:14:08.463Z,540.00
2018-10-16T08:15:08.439Z,540.00
2018-10-16T08:16:08.432Z,544.00
2018-10-16T08:17:08.459Z,544.00
2018-10-16T08:18:08.415Z,548.00
2018-10-16T08:19:08.410Z,548.00
2018-10-16T08:20:08.380Z,552.00
2018-10-16T08:21:08.369Z,552.00
2018-10-16T08:22:08.357Z,556.00
2018-10-16T08:23:08.347Z,560.00
2018-10-16T08:24:08.353Z,560.00
2018-10-16T08:25:08.330Z,564.00
2018-10-16T08:26:08.313Z,568.00
2018-10-16T08:27:08.303Z,572.00
2018-10-16T08:28:08.301Z,572.00
2018-10-16T08:29:08.306Z,576.00
2018-10-16T08:30:08.382Z,580.00
2018-10-16T08:31:08.262Z,580.00
2018-10-16T08:32:08.247Z,584.00
2018-10-16T08:33:08.237Z,588.00
2018-10-16T08:34:08.302Z,588.00
2018-10-16T08:35:08.224Z,592.00
2018-10-16T08:36:08.335Z,592.00
2018-10-16T08:37:08.219Z,596.00
2018-10-16T08:38:08.180Z,596.00
2018-10-16T08:39:08.183Z,600.00
2018-10-16T08:40:08.171Z,604.00
2018-10-16T08:41:08.156Z,604.00
2018-10-16T08:42:08.135Z,608.00
2018-10-16T08:43:08.141Z,612.00
2018-10-16T08:44:08.148Z,612.00
2018-10-16T08:45:08.224Z,616.00
2018-10-16T08:46:08.105Z,620.00
2018-10-16T08:47:08.079Z,620.00
2018-10-16T08:48:16.109Z,620.00
2018-10-16T08:49:15.617Z,624.00
2018-10-16T08:50:15.087Z,628.00
2018-10-16T08:51:08.040Z,628.00
2018-10-16T08:52:08.025Z,632.00
2018-10-16T08:53:08.011Z,636.00
2018-10-16T08:54:08.001Z,636.00
2018-10-16T08:55:08.070Z,640.00
2018-10-16T08:56:07.979Z,644.00
2018-10-16T08:57:07.973Z,644.00
2018-10-16T08:58:07.961Z,644.00
2018-10-16T08:59:07.949Z,648.00
2018-10-16T09:00:07.950Z,652.00
2018-10-16T09:01:07.928Z,652.00
2018-10-16T09:02:07.916Z,656.00
2018-10-16T09:03:07.920Z,660.00
2018-10-16T09:04:07.890Z,664.00
2018-10-16T09:05:07.894Z,668.00
2018-10-16T09:06:07.869Z,668.00
2018-10-16T09:07:07.860Z,672.00
2018-10-16T09:08:07.852Z,676.00
2018-10-16T09:09:07.835Z,676.00
2018-10-16T09:10:07.840Z,680.00
2018-10-16T09:11:07.812Z,684.00
2018-10-16T09:12:07.803Z,684.00
2018-10-16T09:13:07.813Z,688.00
2018-10-16T09:14:07.822Z,696.00
2018-10-16T09:15:07.784Z,696.00
2018-10-16T09:16:07.759Z,700.00
2018-10-16T09:17:07.753Z,704.00
2018-10-16T09:18:07.746Z,708.00
2018-10-16T09:19:07.739Z,708.00
2018-10-16T09:20:07.740Z,712.00
2018-10-16T09:21:07.704Z,716.00
2018-10-16T09:22:07.691Z,716.00
2018-10-16T09:23:07.685Z,724.00
2018-10-16T09:24:07.671Z,724.00
2018-10-16T09:25:07.761Z,724.00
2018-10-16T09:26:07.648Z,728.00
2018-10-16T09:27:07.640Z,732.00
2018-10-16T09:28:07.627Z,736.00
2018-10-16T09:29:07.658Z,740.00
2018-10-16T09:30:07.619Z,744.00
2018-10-16T09:31:07.612Z,748.00
2018-10-16T09:32:07.585Z,752.00
2018-10-16T09:33:07.582Z,756.00
2018-10-16T09:34:07.561Z,760.00
2018-10-16T09:35:07.573Z,764.00
2018-10-16T09:36:07.547Z,764.00
2018-10-16T09:37:07.529Z,772.00
2018-10-16T09:38:07.600Z,776.00
2018-10-16T09:39:07.505Z,776.00
2018-10-16T09:40:07.511Z,784.00
2018-10-16T09:41:07.488Z,784.00
2018-10-16T09:42:07.502Z,788.00
2018-10-16T09:43:07.465Z,792.00
2018-10-16T09:44:07.451Z,796.00
2018-10-16T09:45:07.457Z,800.00
2018-10-16T09:46:07.434Z,808.00
2018-10-16T09:47:07.418Z,808.00
2018-10-16T09:48:07.408Z,812.00
2018-10-16T09:49:07.396Z,816.00
2018-10-16T09:50:07.400Z,820.00
2018-10-16T09:51:07.382Z,824.00
2018-10-16T09:52:07.363Z,828.00
2018-10-16T09:53:07.361Z,832.00
2018-10-16T09:54:07.342Z,840.00
2018-10-16T09:55:07.352Z,840.00
2018-10-16T09:56:07.320Z,844.00
2018-10-16T09:57:07.319Z,848.00
2018-10-16T09:58:07.304Z,852.00
2018-10-16T09:59:07.303Z,856.00
2018-10-16T10:00:07.291Z,860.00
2018-10-16T10:01:07.266Z,864.00
2018-10-16T10:02:07.259Z,868.00
2018-10-16T10:03:07.243Z,876.00
2018-10-16T10:04:07.238Z,876.00
2018-10-16T10:05:07.256Z,880.00
2018-10-16T10:06:07.211Z,888.00
2018-10-16T10:07:07.199Z,892.00
2018-10-16T10:08:07.189Z,900.00
2018-10-16T10:09:07.181Z,904.00
2018-10-16T10:10:07.186Z,912.00
2018-10-16T10:11:07.201Z,916.00
2018-10-16T10:12:07.145Z,920.00
2018-10-16T10:13:07.134Z,932.00
2018-10-16T10:14:07.122Z,936.00
2018-10-16T10:15:07.130Z,944.00
2018-10-16T10:16:07.101Z,948.00
2018-10-16T10:17:07.090Z,956.00
2018-10-16T10:18:07.079Z,956.00
2018-10-16T10:19:07.069Z,964.00
2018-10-16T10:20:07.075Z,960.00
2018-10-16T10:21:07.059Z,964.00
2018-10-16T10:22:07.069Z,960.00
2018-10-16T10:23:07.039Z,960.00
2018-10-16T10:24:07.011Z,976.00
2018-10-16T10:25:07.085Z,992.00
2018-10-16T10:26:06.992Z,996.00
2018-10-16T10:27:07.004Z,1004.00
2018-10-16T10:28:06.968Z,1012.00
2018-10-16T10:29:06.958Z,1020.00
2018-10-16T10:30:06.976Z,1032.00
2018-10-16T10:31:06.936Z,1044.00
2018-10-16T10:32:06.928Z,1056.00
2018-10-16T10:33:06.914Z,1068.00
2018-10-16T10:34:06.909Z,1080.00
2018-10-16T10:35:06.904Z,1076.00
2018-10-16T10:36:06.884Z,1072.00
2018-10-16T10:37:06.875Z,1060.00
2018-10-16T10:38:06.880Z,1060.00
2018-10-16T10:39:06.849Z,1064.00
2018-10-16T10:40:06.856Z,1072.00
2018-10-16T10:41:06.830Z,1088.00
2018-10-16T10:42:06.848Z,1108.00
2018-10-16T10:43:06.819Z,1120.00
2018-10-16T10:44:06.798Z,1132.00
2018-10-16T10:45:06.807Z,1148.00
2018-10-16T10:46:06.773Z,1164.00
2018-10-16T10:47:06.761Z,1184.00
2018-10-16T10:48:06.750Z,1208.00
2018-10-16T10:49:06.764Z,1264.00
2018-10-16T10:50:06.880Z,1564.00
2018-10-16T10:51:06.980Z,2168.00
2018-10-16T10:52:06.707Z,2680.00
2018-10-16T10:53:06.710Z,2960.00
2018-10-16T10:54:06.692Z,3180.00
2018-10-16T10:55:06.701Z,3300.00
2018-10-16T10:56:06.665Z,3376.00
2018-10-16T10:57:06.852Z,3388.00
2018-10-16T10:58:06.644Z,3284.00
2018-10-16T10:59:06.633Z,3436.00
2018-10-16T11:00:06.661Z,3560.00
2018-10-16T11:01:06.611Z,3820.00
2018-10-16T11:02:06.600Z,3856.00
2018-10-16T11:03:06.646Z,3872.00
2018-10-16T11:04:06.587Z,3880.00
2018-10-16T11:05:06.569Z,3864.00
2018-10-16T11:06:06.578Z,3884.00
2018-10-16T11:07:06.549Z,3900.00
2018-10-16T11:08:06.538Z,3904.00
2018-10-16T11:09:06.590Z,3816.00
2018-10-16T11:10:06.533Z,3712.00
2018-10-16T11:11:06.521Z,3592.00
2018-10-16T11:12:06.495Z,3472.00
2018-10-16T11:13:06.483Z,3404.00
2018-10-16T11:14:17.923Z,3320.00
2018-10-16T11:15:06.523Z,3224.00
2018-10-16T11:16:13.547Z,3148.00
2018-10-16T11:17:15.524Z,3084.00
2018-10-16T11:18:06.431Z,3024.00
2018-10-16T11:25:36.171Z,2652.00
2018-10-16T11:37:29.160Z,2400.00
2018-10-16T11:39:59.044Z,2408.00
2018-10-16T11:41:07.600Z,2408.00
2018-10-16T11:42:12.461Z,2412.00
2018-10-16T11:42:59.008Z,2440.00
2018-10-16T11:44:16.576Z,2464.00
2018-10-16T11:44:59.058Z,2488.00
2018-10-16T11:45:58.976Z,2512.00
2018-10-16T11:46:58.983Z,2532.00
2018-10-16T11:47:58.958Z,2544.00
2018-10-16T11:48:58.943Z,2556.00
2018-10-16T11:49:58.992Z,2548.00
2018-10-16T11:50:58.922Z,2520.00
2018-10-16T11:51:58.930Z,2516.00
2018-10-16T11:52:58.900Z,2540.00
2018-10-16T11:53:58.889Z,2648.00
2018-10-16T11:54:58.878Z,2696.00
2018-10-16T11:55:58.895Z,2736.00
2018-10-16T11:56:58.862Z,2764.00
2018-10-16T11:57:58.870Z,2796.00
2018-10-16T11:58:58.836Z,2836.00
2018-10-16T11:59:58.824Z,2864.00
2018-10-16T12:00:58.816Z,2908.00
2018-10-16T12:01:58.928Z,2952.00
2018-10-16T12:02:58.809Z,3004.00
2018-10-16T12:03:58.779Z,3040.00
2018-10-16T12:04:58.768Z,3088.00
2018-10-16T12:05:58.841Z,3136.00
2018-10-16T12:06:58.799Z,3192.00
2018-10-16T12:07:58.793Z,3236.00
2018-10-16T12:08:58.721Z,3288.00
2018-10-16T12:10:05.756Z,3344.00
2018-10-16T12:10:58.751Z,3404.00
2018-10-16T12:11:58.729Z,3464.00
2018-10-16T12:12:58.739Z,3532.00
2018-10-16T12:13:58.725Z,3592.00
2018-10-16T12:14:58.656Z,3656.00
2018-10-16T12:15:58.645Z,3736.00
2018-10-16T12:16:58.704Z,3828.00
2018-10-16T12:17:58.642Z,3944.00
2018-10-16T12:18:58.655Z,4072.00
2018-10-16T12:19:58.673Z,4236.00
2018-10-16T12:20:58.626Z,4500.00
2018-10-16T12:21:58.625Z,5916.00
2018-10-16T12:22:58.586Z,16324.00
2018-10-16T12:23:58.613Z,25344.00
2018-10-16T12:24:58.569Z,25728.00
2018-10-16T12:25:58.536Z,24960.00
2018-10-16T12:26:58.551Z,23776.00
2018-10-16T12:27:58.532Z,24512.00
2018-10-16T12:28:58.584Z,24864.00
2018-10-16T12:29:58.493Z,24032.00
2018-10-16T12:30:58.555Z,25056.00
2018-10-16T12:31:58.486Z,26016.00
2018-10-16T12:32:58.482Z,25760.00
2018-10-16T12:33:58.455Z,25216.00
2018-10-16T12:34:58.447Z,26080.00
2018-10-16T12:35:58.433Z,25184.00
2018-10-16T12:36:58.458Z,24736.00
2018-10-16T12:37:58.408Z,25568.00
2018-10-16T12:38:58.468Z,25888.00
2018-10-16T12:39:58.444Z,25664.00
2018-10-16T12:40:58.398Z,24896.00
2018-10-16T12:41:58.412Z,25024.00
2018-10-16T12:42:58.508Z,24960.00
2018-10-16T12:43:58.365Z,23296.00
2018-10-16T12:44:58.408Z,23648.00
2018-10-16T12:45:58.346Z,25120.00
2018-10-16T12:46:58.339Z,25216.00
2018-10-16T12:47:58.323Z,25344.00
2018-10-16T12:48:58.310Z,25024.00
2018-10-16T12:49:58.278Z,24256.00
2018-10-16T12:50:58.310Z,24096.00
2018-10-16T12:51:58.263Z,23680.00
2018-10-16T12:52:58.310Z,21792.00
2018-10-16T12:53:58.306Z,23296.00
2018-10-16T12:54:58.223Z,11284.00
2018-10-16T12:55:58.229Z,11824.00
2018-10-16T12:56:58.287Z,21920.00
2018-10-16T12:57:58.190Z,13428.00
2018-10-16T12:58:58.217Z,9324.00
2018-10-16T12:59:58.178Z,9268.00
2018-10-16T13:00:58.156Z,16204.00
2018-10-16T13:01:58.193Z,22368.00
2018-10-16T13:02:58.154Z,25120.00